Time;durP1;ratioP1;P1;durP2;ratioP2;P2;SDS_P1;SDS_P2;PMS_P1;PMS_P2;Temp;Humidity;BMP_temperature;BMP_pressure;BME280_temperature;BME280_humidity;BME280_pressure;Samples;Min_cycle;Max_cycle;Signal;HPM_P1;HPM_P2
2021/08/25 00:00:01;;;;;;;21.20;12.90;;;;;;;;;;5092945;28;20052;-67
2021/08/25 00:02:27;;;;;;;23.50;13.10;;;;;;;;;;5089925;28;20312;-67
2021/08/25 00:04:54;;;;;;;20.27;14.13;;;;;;;;;;5092452;28;20074;-67
2021/08/25 00:07:21;;;;;;;17.52;13.88;;;;;;;;;;5092812;28;20107;-67
2021/08/25 00:09:47;;;;;;;21.92;12.35;;;;;;;;;;5092581;28;20044;-68
2021/08/25 00:12:13;;;;;;;22.90;16.58;;;;;;;;;;5090945;28;20020;-67
2021/08/25 00:14:41;;;;;;;19.85;11.50;;;;;;;;;;5090941;28;20016;-68
2021/08/25 00:17:07;;;;;;;23.95;14.25;;;;;;;;;;5092385;28;20034;-67
2021/08/25 00:19:33;;;;;;;23.85;14.13;;;;;;;;;;5092325;28;20062;-67
2021/08/25 00:21:59;;;;;;;24.70;15.40;;;;;;;;;;5092443;28;20028;-68
2021/08/25 00:24:26;;;;;;;24.15;17.45;;;;;;;;;;5088821;28;20097;-67
2021/08/25 00:26:52;;;;;;;22.98;15.60;;;;;;;;;;5092091;28;20023;-68
2021/08/25 00:29:18;;;;;;;21.60;14.98;;;;;;;;;;5091221;28;20544;-68
2021/08/25 00:31:44;;;;;;;20.42;13.77;;;;;;;;;;5092237;28;20020;-67
2021/08/25 00:34:10;;;;;;;27.85;15.55;;;;;;;;;;5095951;28;20393;-68
2021/08/25 00:36:36;;;;;;;20.17;16.10;;;;;;;;;;5112493;28;20561;-67
2021/08/25 00:39:03;;;;;;;20.08;14.10;;;;;;;;;;5093968;28;20028;-68
2021/08/25 00:41:29;;;;;;;21.75;15.20;;;;;;;;;;5094028;28;20023;-68
2021/08/25 00:43:56;;;;;;;27.00;17.75;;;;;;;;;;5109145;28;20062;-68
2021/08/25 00:46:22;;;;;;;24.08;17.88;;;;;;;;;;5093790;28;20016;-67
2021/08/25 00:48:49;;;;;;;26.10;18.20;;;;;;;;;;5112332;28;20044;-67
2021/08/25 00:51:16;;;;;;;27.05;15.32;;;;;;;;;;5112326;28;20020;-68
2021/08/25 00:53:42;;;;;;;28.38;18.10;;;;;;;;;;5088951;28;20496;-68
2021/08/25 00:56:08;;;;;;;23.35;15.85;;;;;;;;;;5091492;28;20035;-68
2021/08/25 00:58:39;;;;;;;23.27;13.95;;;;;;;;;;5091751;28;20028;-68
2021/08/25 01:01:12;;;;;;;19.48;14.38;;;;;;;;;;5091630;28;20028;-67
2021/08/25 01:03:52;;;;;;;17.52;13.05;;;;;;;;;;5087959;28;20514;-67
2021/08/25 01:06:22;;;;;;;17.70;13.00;;;;;;;;;;5090021;28;20119;-67
2021/08/25 01:08:48;;;;;;;25.88;14.82;;;;;;;;;;5091562;28;20523;-68
2021/08/25 01:11:14;;;;;;;21.90;13.27;;;;;;;;;;5090058;28;20071;-68
2021/08/25 01:13:40;;;;;;;22.80;13.75;;;;;;;;;;5088394;28;20413;-67
2021/08/25 01:16:07;;;;;;;20.98;13.65;;;;;;;;;;5091639;28;20062;-67
2021/08/25 01:18:34;;;;;;;21.40;13.95;;;;;;;;;;5091374;28;20031;-67
2021/08/25 01:21:00;;;;;;;18.67;13.02;;;;;;;;;;5091288;28;20053;-67
2021/08/25 01:23:27;;;;;;;20.98;13.90;;;;;;;;;;5088274;28;20023;-68
2021/08/25 01:25:55;;;;;;;18.85;14.23;;;;;;;;;;5089692;28;20024;-68
2021/08/25 01:28:23;;;;;;;24.90;14.43;;;;;;;;;;5091347;28;20165;-68
2021/08/25 01:30:50;;;;;;;24.90;14.25;;;;;;;;;;5091236;28;20478;-67
2021/08/25 01:33:20;;;;;;;24.48;14.77;;;;;;;;;;5086805;28;20020;-67
2021/08/25 01:35:46;;;;;;;19.08;12.88;;;;;;;;;;5111017;28;20031;-67
2021/08/25 01:38:41;;;;;;;25.58;14.70;;;;;;;;;;5111722;28;20567;-67
2021/08/25 01:41:07;;;;;;;20.00;14.15;;;;;;;;;;5090273;28;20127;-67
2021/08/25 01:43:33;;;;;;;21.25;14.23;;;;;;;;;;5108438;28;20019;-68
2021/08/25 01:45:59;;;;;;;20.80;14.05;;;;;;;;;;5111373;28;20027;-67
2021/08/25 01:48:25;;;;;;;19.08;13.25;;;;;;;;;;5111196;28;20043;-67
2021/08/25 01:50:51;;;;;;;24.15;14.38;;;;;;;;;;5111091;28;20080;-68
2021/08/25 01:53:17;;;;;;;22.58;14.20;;;;;;;;;;5108167;28;20031;-67
2021/08/25 01:55:43;;;;;;;19.70;13.75;;;;;;;;;;5092014;28;20024;-68
2021/08/25 01:58:09;;;;;;;21.00;15.02;;;;;;;;;;5089596;28;20521;-67
2021/08/25 02:00:36;;;;;;;18.25;13.93;;;;;;;;;;5090988;28;20505;-67
2021/08/25 02:03:02;;;;;;;28.05;14.57;;;;;;;;;;5086142;28;20039;-67
2021/08/25 02:05:28;;;;;;;20.38;15.20;;;;;;;;;;5090748;28;20058;-68
2021/08/25 02:07:54;;;;;;;21.35;14.45;;;;;;;;;;5089373;28;20516;-67
2021/08/25 02:10:20;;;;;;;24.13;14.32;;;;;;;;;;5090685;28;20027;-67
2021/08/25 02:12:46;;;;;;;22.73;15.15;;;;;;;;;;5088012;28;20331;-67
2021/08/25 02:15:12;;;;;;;24.23;15.50;;;;;;;;;;5093084;28;20020;-67
2021/08/25 02:17:40;;;;;;;24.17;15.18;;;;;;;;;;5094919;28;20024;-67
2021/08/25 02:20:06;;;;;;;23.25;16.23;;;;;;;;;;5094573;28;20028;-67
2021/08/25 02:22:32;;;;;;;24.38;14.88;;;;;;;;;;5091758;28;20258;-67
2021/08/25 02:24:59;;;;;;;20.33;13.98;;;;;;;;;;5094398;28;20115;-67
2021/08/25 02:27:25;;;;;;;21.90;15.45;;;;;;;;;;5094443;28;20497;-67
2021/08/25 02:29:55;;;;;;;22.42;14.45;;;;;;;;;;5092282;28;20485;-67
2021/08/25 02:32:25;;;;;;;23.85;15.15;;;;;;;;;;5092231;28;20020;-67
2021/08/25 02:34:51;;;;;;;22.85;15.57;;;;;;;;;;5107019;28;20035;-67
2021/08/25 02:37:17;;;;;;;19.73;14.20;;;;;;;;;;5095742;28;20035;-67
2021/08/25 02:39:43;;;;;;;21.42;14.85;;;;;;;;;;5114695;28;20031;-67
2021/08/25 02:42:09;;;;;;;21.00;14.13;;;;;;;;;;5113690;28;20023;-67
2021/08/25 02:44:35;;;;;;;21.77;14.73;;;;;;;;;;5112677;28;20030;-67
2021/08/25 02:47:01;;;;;;;23.88;14.73;;;;;;;;;;5114620;28;20030;-67
2021/08/25 02:49:27;;;;;;;20.70;14.73;;;;;;;;;;5114354;28;20051;-67
2021/08/25 02:51:53;;;;;;;19.98;13.65;;;;;;;;;;5114585;28;20012;-65
2021/08/25 02:54:19;;;;;;;20.60;13.43;;;;;;;;;;5104302;28;20020;-65
2021/08/25 02:56:45;;;;;;;19.83;13.20;;;;;;;;;;5094077;28;20086;-65
2021/08/25 02:59:13;;;;;;;21.90;13.32;;;;;;;;;;5093968;28;20043;-66
2021/08/25 03:01:39;;;;;;;21.52;13.63;;;;;;;;;;5094128;28;20077;-66
2021/08/25 03:04:05;;;;;;;18.98;13.88;;;;;;;;;;5089276;28;20027;-65
2021/08/25 03:06:31;;;;;;;18.95;13.73;;;;;;;;;;5094083;28;20028;-65
2021/08/25 03:08:57;;;;;;;18.17;12.18;;;;;;;;;;5093883;28;20031;-65
2021/08/25 03:11:23;;;;;;;20.45;13.38;;;;;;;;;;5093669;28;20031;-65
2021/08/25 03:13:50;;;;;;;20.75;14.00;;;;;;;;;;5090522;28;20020;-65
2021/08/25 03:16:16;;;;;;;24.90;16.38;;;;;;;;;;5092415;28;20568;-65
2021/08/25 03:18:42;;;;;;;21.95;15.10;;;;;;;;;;5093671;28;20094;-65
2021/08/25 03:21:09;;;;;;;22.50;13.38;;;;;;;;;;5091386;28;20066;-65
2021/08/25 03:23:35;;;;;;;17.58;12.85;;;;;;;;;;5090387;28;20016;-66
2021/08/25 03:26:01;;;;;;;16.98;11.88;;;;;;;;;;5092501;28;20505;-65
2021/08/25 03:28:27;;;;;;;21.20;13.00;;;;;;;;;;5093864;28;20139;-65
2021/08/25 03:30:56;;;;;;;23.58;15.20;;;;;;;;;;5092169;28;20051;-65
2021/08/25 03:33:22;;;;;;;24.85;16.65;;;;;;;;;;5090800;28;20031;-65
2021/08/25 03:35:49;;;;;;;20.10;14.85;;;;;;;;;;5113563;28;20028;-65
2021/08/25 03:38:15;;;;;;;22.95;15.35;;;;;;;;;;5095360;28;20477;-65
2021/08/25 03:40:41;;;;;;;27.02;15.70;;;;;;;;;;5113385;28;20073;-65
2021/08/25 03:43:07;;;;;;;26.08;15.93;;;;;;;;;;5110560;28;20024;-65
2021/08/25 03:45:33;;;;;;;27.48;16.55;;;;;;;;;;5094533;28;20032;-65
2021/08/25 03:47:59;;;;;;;28.75;17.60;;;;;;;;;;5113370;28;20099;-65
2021/08/25 03:50:25;;;;;;;29.10;18.67;;;;;;;;;;5113501;28;20028;-65
2021/08/25 03:52:51;;;;;;;28.75;19.60;;;;;;;;;;5110414;28;20051;-65
2021/08/25 03:55:18;;;;;;;26.73;16.85;;;;;;;;;;5097857;28;20028;-65
2021/08/25 03:57:44;;;;;;;26.65;17.38;;;;;;;;;;5093038;28;20070;-65
2021/08/25 04:00:10;;;;;;;30.67;19.00;;;;;;;;;;5092747;28;20028;-65
2021/08/25 04:02:36;;;;;;;32.33;19.17;;;;;;;;;;5089915;28;20105;-65
2021/08/25 04:05:02;;;;;;;36.58;22.38;;;;;;;;;;5092452;28;20020;-66
2021/08/25 04:07:28;;;;;;;30.08;20.77;;;;;;;;;;5092670;28;20315;-65
2021/08/25 04:09:54;;;;;;;32.50;22.73;;;;;;;;;;5090872;28;20251;-65
2021/08/25 04:12:20;;;;;;;40.83;24.63;;;;;;;;;;5090382;28;20212;-65
2021/08/25 04:14:46;;;;;;;37.88;24.52;;;;;;;;;;5091669;28;20024;-65
2021/08/25 04:17:12;;;;;;;40.97;27.73;;;;;;;;;;5092582;28;20028;-65
2021/08/25 04:19:38;;;;;;;40.78;27.85;;;;;;;;;;5092311;28;20493;-65
2021/08/25 04:22:04;;;;;;;48.85;31.90;;;;;;;;;;5092091;28;20519;-65
2021/08/25 04:24:30;;;;;;;46.20;31.45;;;;;;;;;;5089469;28;20486;-65
2021/08/25 04:26:56;;;;;;;54.63;34.85;;;;;;;;;;5092270;28;20497;-65
2021/08/25 04:29:22;;;;;;;61.30;41.42;;;;;;;;;;5091049;28;20035;-65
2021/08/25 04:31:49;;;;;;;48.17;33.90;;;;;;;;;;5091268;28;20017;-65
2021/08/25 04:34:15;;;;;;;53.13;34.80;;;;;;;;;;5096597;28;20028;-65
2021/08/25 04:36:41;;;;;;;65.28;41.80;;;;;;;;;;5111705;28;20015;-65
2021/08/25 04:39:07;;;;;;;63.13;36.33;;;;;;;;;;5112127;28;20035;-65
2021/08/25 04:41:33;;;;;;;66.72;40.13;;;;;;;;;;5112345;28;20053;-66
2021/08/25 04:43:59;;;;;;;59.33;36.25;;;;;;;;;;5090927;28;20045;-65
2021/08/25 04:46:25;;;;;;;58.40;38.67;;;;;;;;;;5112310;28;20247;-66
2021/08/25 04:48:51;;;;;;;62.05;39.95;;;;;;;;;;5112211;28;20051;-66
2021/08/25 04:51:17;;;;;;;66.35;38.72;;;;;;;;;;5112024;28;20030;-66
2021/08/25 04:53:43;;;;;;;65.65;38.00;;;;;;;;;;5088754;28;20036;-66
2021/08/25 04:56:09;;;;;;;58.75;36.03;;;;;;;;;;5091541;28;20051;-66
2021/08/25 04:58:36;;;;;;;58.45;38.20;;;;;;;;;;5091746;28;20398;-66
2021/08/25 05:01:04;;;;;;;56.63;37.25;;;;;;;;;;5091645;28;20028;-66
2021/08/25 05:03:30;;;;;;;60.25;37.95;;;;;;;;;;5088514;28;20264;-65
2021/08/25 05:05:56;;;;;;;60.55;37.90;;;;;;;;;;5089499;28;20151;-65
2021/08/25 05:08:22;;;;;;;59.88;37.90;;;;;;;;;;5091520;28;20228;-65
2021/08/25 05:10:49;;;;;;;60.17;37.45;;;;;;;;;;5090224;28;20016;-65
2021/08/25 05:13:15;;;;;;;53.53;35.65;;;;;;;;;;5088574;28;20027;-65
2021/08/25 05:15:47;;;;;;;57.00;36.42;;;;;;;;;;5090234;28;20224;-65
2021/08/25 05:18:13;;;;;;;50.38;36.13;;;;;;;;;;5091431;28;20057;-65
2021/08/25 05:20:39;;;;;;;50.58;34.63;;;;;;;;;;5089337;28;20460;-66
2021/08/25 05:23:05;;;;;;;57.15;37.33;;;;;;;;;;5088516;28;20027;-65
2021/08/25 05:25:31;;;;;;;60.17;37.63;;;;;;;;;;5089507;28;20111;-65
2021/08/25 05:27:57;;;;;;;56.03;34.85;;;;;;;;;;5091279;28;20047;-66
2021/08/25 05:30:23;;;;;;;63.92;40.80;;;;;;;;;;5091415;28;20046;-65
2021/08/25 05:32:52;;;;;;;66.60;38.20;;;;;;;;;;5088362;28;20516;-65
2021/08/25 05:35:22;;;;;;;72.75;43.10;;;;;;;;;;5107514;28;20024;-65
2021/08/25 05:37:48;;;;;;;69.15;43.58;;;;;;;;;;5093529;28;20055;-65
2021/08/25 05:40:15;;;;;;;64.70;40.90;;;;;;;;;;5111411;28;20027;-65
2021/08/25 05:42:42;;;;;;;68.15;42.35;;;;;;;;;;5108508;28;20019;-65
2021/08/25 05:45:09;;;;;;;57.72;39.20;;;;;;;;;;5111224;28;20028;-65
2021/08/25 05:47:35;;;;;;;57.85;39.00;;;;;;;;;;5111176;28;20023;-65
2021/08/25 05:50:01;;;;;;;63.05;40.28;;;;;;;;;;5117920;28;20031;-66
2021/08/25 05:52:27;;;;;;;59.00;39.58;;;;;;;;;;5115240;28;20590;-65
2021/08/25 05:54:53;;;;;;;67.22;43.90;;;;;;;;;;5095546;28;20028;-65
2021/08/25 05:57:19;;;;;;;66.70;44.42;;;;;;;;;;5097583;28;20035;-65
2021/08/25 05:59:45;;;;;;;70.38;42.05;;;;;;;;;;5079761;28;20039;-65
2021/08/25 06:02:11;;;;;;;64.07;40.13;;;;;;;;;;5096585;28;20028;-66
2021/08/25 06:04:37;;;;;;;69.03;43.03;;;;;;;;;;5095713;28;20020;-65
2021/08/25 06:07:07;;;;;;;68.10;43.28;;;;;;;;;;5078937;28;20039;-66
2021/08/25 06:09:33;;;;;;;55.78;36.92;;;;;;;;;;5097536;28;20078;-66
2021/08/25 06:12:00;;;;;;;55.15;37.78;;;;;;;;;;5097727;28;20032;-65
2021/08/25 06:14:26;;;;;;;56.50;34.20;;;;;;;;;;5094477;28;20020;-65
2021/08/25 06:16:52;;;;;;;54.75;35.00;;;;;;;;;;5097559;28;20046;-65
2021/08/25 06:19:18;;;;;;;57.35;35.95;;;;;;;;;;5097480;28;20024;-66
2021/08/25 06:21:45;;;;;;;49.58;33.13;;;;;;;;;;5079215;28;20030;-66
2021/08/25 06:24:11;;;;;;;48.65;31.23;;;;;;;;;;5094191;28;20331;-66
2021/08/25 06:26:37;;;;;;;48.25;33.05;;;;;;;;;;5097470;28;20064;-66
2021/08/25 06:29:03;;;;;;;45.05;30.85;;;;;;;;;;5097538;28;20077;-65
2021/08/25 06:31:30;;;;;;;49.58;28.45;;;;;;;;;;5097395;28;20028;-65
2021/08/25 06:33:56;;;;;;;38.72;25.30;;;;;;;;;;5095800;28;20028;-65
2021/08/25 06:36:22;;;;;;;37.67;25.58;;;;;;;;;;5117801;28;20031;-66
2021/08/25 06:38:48;;;;;;;41.45;26.88;;;;;;;;;;5117851;28;20106;-66
2021/08/25 06:41:14;;;;;;;32.97;24.55;;;;;;;;;;5117487;28;20450;-65
2021/08/25 06:43:40;;;;;;;31.52;21.02;;;;;;;;;;5114865;27;20509;-65
2021/08/25 06:46:06;;;;;;;32.85;22.00;;;;;;;;;;5117682;27;20020;-66
2021/08/25 06:48:32;;;;;;;27.17;19.40;;;;;;;;;;5098681;28;20068;-65
2021/08/25 06:50:59;;;;;;;27.70;18.55;;;;;;;;;;5117538;28;20488;-65
2021/08/25 06:53:25;;;;;;;32.08;17.88;;;;;;;;;;5114635;27;20107;-65
2021/08/25 06:55:51;;;;;;;27.50;17.40;;;;;;;;;;5097444;28;20036;-65
2021/08/25 06:58:17;;;;;;;24.38;15.20;;;;;;;;;;5097273;28;20020;-65
2021/08/25 07:00:43;;;;;;;20.85;13.57;;;;;;;;;;5092860;28;20018;-65
2021/08/25 07:03:09;;;;;;;19.60;12.20;;;;;;;;;;5091004;28;20038;-65
2021/08/25 07:05:35;;;;;;;19.80;11.98;;;;;;;;;;5093713;28;20266;-65
2021/08/25 07:08:01;;;;;;;21.42;12.27;;;;;;;;;;5093819;28;20081;-65
2021/08/25 07:10:27;;;;;;;20.67;11.05;;;;;;;;;;5093668;28;20012;-65
2021/08/25 07:12:54;;;;;;;16.17;11.25;;;;;;;;;;5091021;28;20056;-65
2021/08/25 07:15:20;;;;;;;14.90;11.63;;;;;;;;;;5092053;28;20493;-65
2021/08/25 07:17:46;;;;;;;16.15;10.35;;;;;;;;;;5091706;28;20043;-65
2021/08/25 07:20:13;;;;;;;18.20;10.90;;;;;;;;;;5092141;28;20073;-65
2021/08/25 07:22:39;;;;;;;16.55;11.45;;;;;;;;;;5090746;28;20032;-65
2021/08/25 07:25:08;;;;;;;15.32;10.50;;;;;;;;;;5093437;28;20201;-66
2021/08/25 07:27:35;;;;;;;14.10;9.63;;;;;;;;;;5092122;28;20036;-65
2021/08/25 07:30:01;;;;;;;20.48;11.32;;;;;;;;;;5093477;28;20020;-65
2021/08/25 07:32:27;;;;;;;20.38;10.80;;;;;;;;;;5090192;28;20185;-65
2021/08/25 07:34:54;;;;;;;18.25;11.40;;;;;;;;;;5094829;28;20024;-65
2021/08/25 07:37:20;;;;;;;24.05;10.60;;;;;;;;;;5113504;28;20043;-65
2021/08/25 07:39:46;;;;;;;16.55;9.23;;;;;;;;;;5113474;28;20102;-65
2021/08/25 07:42:12;;;;;;;13.88;9.57;;;;;;;;;;5094001;28;20064;-66
2021/08/25 07:44:38;;;;;;;15.70;8.35;;;;;;;;;;5111671;28;20043;-66
2021/08/25 07:47:04;;;;;;;12.90;8.40;;;;;;;;;;5095269;28;20508;-65
2021/08/25 07:49:31;;;;;;;15.68;8.75;;;;;;;;;;5113321;28;20047;-65
2021/08/25 07:51:58;;;;;;;12.52;8.73;;;;;;;;;;5113424;28;20019;-65
2021/08/25 07:54:24;;;;;;;14.23;8.95;;;;;;;;;;5102345;28;20024;-65
2021/08/25 07:56:50;;;;;;;16.92;8.55;;;;;;;;;;5092983;28;20078;-66
2021/08/25 07:59:16;;;;;;;15.15;9.02;;;;;;;;;;5092827;28;20496;-66
2021/08/25 08:01:42;;;;;;;15.85;9.50;;;;;;;;;;5092844;28;20028;-65
2021/08/25 08:04:08;;;;;;;21.95;11.00;;;;;;;;;;5089443;28;20024;-65
2021/08/25 08:06:34;;;;;;;19.05;11.07;;;;;;;;;;5092911;28;20059;-66
2021/08/25 08:09:01;;;;;;;16.92;10.50;;;;;;;;;;5093014;28;20020;-65
2021/08/25 08:11:27;;;;;;;17.90;10.90;;;;;;;;;;5091032;28;20063;-66
2021/08/25 08:13:53;;;;;;;20.33;12.20;;;;;;;;;;5089492;28;20052;-65
2021/08/25 08:16:21;;;;;;;21.50;14.52;;;;;;;;;;5092537;28;20412;-66
2021/08/25 08:21:23;;;;;;;24.27;16.85;;;;;;;;;;5092433;28;20489;-65
2021/08/25 08:23:49;;;;;;;26.77;18.30;;;;;;;;;;5089352;28;20482;-65
2021/08/25 08:26:15;;;;;;;24.67;17.13;;;;;;;;;;5091915;28;20039;-65
2021/08/25 08:28:41;;;;;;;25.13;17.25;;;;;;;;;;5092603;28;20095;-65
2021/08/25 08:31:07;;;;;;;24.02;18.00;;;;;;;;;;5092166;28;20031;-65
2021/08/25 08:33:33;;;;;;;24.25;16.98;;;;;;;;;;5091421;28;20020;-65
2021/08/25 08:35:59;;;;;;;23.60;17.55;;;;;;;;;;5112329;28;20024;-65
2021/08/25 08:38:25;;;;;;;25.65;17.23;;;;;;;;;;5112720;28;20026;-66
2021/08/25 08:40:51;;;;;;;23.55;16.75;;;;;;;;;;5112325;28;20047;-66
2021/08/25 08:43:17;;;;;;;30.85;17.38;;;;;;;;;;5109539;28;20019;-65
2021/08/25 08:45:44;;;;;;;26.30;16.48;;;;;;;;;;5112191;28;20024;-66
2021/08/25 08:48:11;;;;;;;24.33;15.85;;;;;;;;;;5111969;28;20062;-66
2021/08/25 08:50:38;;;;;;;21.40;15.45;;;;;;;;;;5094167;28;20047;-66
2021/08/25 08:53:05;;;;;;;21.70;16.02;;;;;;;;;;5109355;28;20636;-66
2021/08/25 08:55:31;;;;;;;23.23;15.55;;;;;;;;;;5094941;28;20031;-66
2021/08/25 08:57:57;;;;;;;23.70;15.68;;;;;;;;;;5091896;28;20020;-65
2021/08/25 09:00:23;;;;;;;24.83;16.17;;;;;;;;;;5091605;28;20028;-66
2021/08/25 09:02:49;;;;;;;25.48;18.17;;;;;;;;;;5088926;28;20366;-66
2021/08/25 09:05:16;;;;;;;28.08;16.63;;;;;;;;;;5089880;28;20111;-66
2021/08/25 09:08:00;;;;;;;20.33;14.15;;;;;;;;;;5091564;28;20107;-66
2021/08/25 09:10:26;;;;;;;20.17;15.23;;;;;;;;;;5091515;28;20017;-66
2021/08/25 09:12:53;;;;;;;23.88;16.25;;;;;;;;;;5088640;28;20249;-66
2021/08/25 09:15:20;;;;;;;24.45;16.23;;;;;;;;;;5091458;28;20174;-66
2021/08/25 09:17:46;;;;;;;25.30;15.95;;;;;;;;;;5091491;28;20073;-66
2021/08/25 09:20:12;;;;;;;22.85;15.93;;;;;;;;;;5091222;28;20065;-66
2021/08/25 09:22:39;;;;;;;24.77;15.80;;;;;;;;;;5088321;28;20040;-65
2021/08/25 09:25:05;;;;;;;21.15;14.43;;;;;;;;;;5089394;28;20130;-66
2021/08/25 09:27:31;;;;;;;21.02;16.20;;;;;;;;;;5091156;28;20060;-65
2021/08/25 09:29:59;;;;;;;25.23;18.08;;;;;;;;;;5091417;28;20023;-65
2021/08/25 09:32:26;;;;;;;22.52;16.90;;;;;;;;;;5088553;28;20017;-66
2021/08/25 09:34:56;;;;;;;20.52;14.20;;;;;;;;;;5103945;28;20080;-65
2021/08/25 09:37:22;;;;;;;25.92;17.05;;;;;;;;;;5111734;28;20389;-66
2021/08/25 09:39:49;;;;;;;26.70;17.60;;;;;;;;;;5111532;28;20027;-66
2021/08/25 09:42:17;;;;;;;23.95;18.27;;;;;;;;;;5109659;28;20031;-65
2021/08/25 09:44:44;;;;;;;26.38;17.95;;;;;;;;;;5110361;28;20019;-65
2021/08/25 09:47:10;;;;;;;19.58;15.25;;;;;;;;;;5111473;28;20027;-66
2021/08/25 09:49:36;;;;;;;25.67;17.10;;;;;;;;;;5110989;28;20112;-65
2021/08/25 09:52:03;;;;;;;29.50;18.25;;;;;;;;;;5111323;28;20034;-66
2021/08/25 09:54:29;;;;;;;21.65;15.55;;;;;;;;;;5100086;28;20050;-65
2021/08/25 09:56:55;;;;;;;21.48;15.70;;;;;;;;;;5088996;28;20032;-65
2021/08/25 09:59:21;;;;;;;20.08;13.50;;;;;;;;;;5089884;28;20127;-65
2021/08/25 10:01:49;;;;;;;16.35;12.32;;;;;;;;;;5090910;28;20021;-65
2021/08/25 10:04:15;;;;;;;16.70;12.75;;;;;;;;;;5087809;28;20078;-66
2021/08/25 10:06:44;;;;;;;15.68;10.45;;;;;;;;;;5090771;28;20024;-65
2021/08/25 10:09:11;;;;;;;17.02;11.05;;;;;;;;;;5089445;28;20031;-66
2021/08/25 10:11:42;;;;;;;16.10;10.05;;;;;;;;;;5091063;28;20023;-65
2021/08/25 10:14:19;;;;;;;17.85;9.40;;;;;;;;;;5086231;28;20024;-67
2021/08/25 10:16:46;;;;;;;15.85;8.80;;;;;;;;;;5090881;28;20027;-64
2021/08/25 10:19:34;;;;;;;14.70;6.47;;;;;;;;;;5090696;28;20036;-65
2021/08/25 10:22:04;;;;;;;13.15;7.35;;;;;;;;;;5089418;28;20107;-66
2021/08/25 10:24:49;;;;;;;14.27;7.88;;;;;;;;;;5087792;28;20132;-66
2021/08/25 10:27:15;;;;;;;15.20;7.78;;;;;;;;;;5090397;28;20031;-65
2021/08/25 10:30:19;;;;;;;14.07;8.65;;;;;;;;;;5091018;28;20020;-65
2021/08/25 10:32:51;;;;;;;17.70;8.75;;;;;;;;;;5005085;28;20033;-65
2021/08/25 10:35:24;;;;;;;13.95;7.82;;;;;;;;;;5024755;28;20036;-66
2021/08/25 10:37:52;;;;;;;11.55;6.75;;;;;;;;;;5066791;28;20040;-66
2021/08/25 10:40:20;;;;;;;10.85;6.90;;;;;;;;;;5075959;28;20111;-66
2021/08/25 10:42:49;;;;;;;11.88;6.93;;;;;;;;;;5111872;28;20031;-65
2021/08/25 10:45:16;;;;;;;10.80;7.45;;;;;;;;;;5114551;28;20027;-66
2021/08/25 10:47:58;;;;;;;15.20;8.60;;;;;;;;;;5114536;28;20114;-66
2021/08/25 10:50:24;;;;;;;12.07;6.18;;;;;;;;;;5114526;28;20525;-66
2021/08/25 10:52:51;;;;;;;11.90;7.68;;;;;;;;;;5111520;28;20020;-66
2021/08/25 10:55:17;;;;;;;16.02;6.38;;;;;;;;;;5099224;28;20024;-65
2021/08/25 10:57:46;;;;;;;12.57;6.25;;;;;;;;;;5094125;28;20020;-65
2021/08/25 11:00:13;;;;;;;10.30;5.88;;;;;;;;;;5094062;28;20032;-65
2021/08/25 11:02:42;;;;;;;11.00;6.75;;;;;;;;;;5091551;28;20020;-66
2021/08/25 11:05:08;;;;;;;17.00;6.15;;;;;;;;;;5093685;28;20073;-66
2021/08/25 11:07:43;;;;;;;11.57;5.95;;;;;;;;;;5093901;28;20024;-65
2021/08/25 11:10:09;;;;;;;21.17;6.60;;;;;;;;;;5093838;28;20020;-66
2021/08/25 11:12:35;;;;;;;9.55;5.38;;;;;;;;;;5090778;28;20016;-66
2021/08/25 11:15:02;;;;;;;10.38;5.47;;;;;;;;;;5093387;28;20075;-66
2021/08/25 11:17:28;;;;;;;10.00;6.28;;;;;;;;;;5093689;28;20020;-66
2021/08/25 11:19:54;;;;;;;12.93;6.32;;;;;;;;;;5093612;28;20032;-66
2021/08/25 11:22:39;;;;;;;12.95;6.00;;;;;;;;;;5073317;28;20040;-66
2021/08/25 11:25:07;;;;;;;11.23;6.30;;;;;;;;;;5093148;28;20015;-66
2021/08/25 11:27:37;;;;;;;14.57;6.65;;;;;;;;;;5093534;28;20043;-66
2021/08/25 11:30:07;;;;;;;15.40;6.85;;;;;;;;;;5093744;28;20016;-66
2021/08/25 11:32:52;;;;;;;14.80;5.65;;;;;;;;;;5072276;28;20031;-66
2021/08/25 11:35:22;;;;;;;9.07;4.90;;;;;;;;;;5109686;28;20050;-66
2021/08/25 11:37:48;;;;;;;12.40;5.13;;;;;;;;;;5113731;28;20035;-66
2021/08/25 11:40:15;;;;;;;9.35;5.57;;;;;;;;;;5113431;28;20536;-66
2021/08/25 11:42:41;;;;;;;7.55;4.65;;;;;;;;;;5110724;28;20084;-66
2021/08/25 11:45:15;;;;;;;13.68;5.47;;;;;;;;;;5113092;28;20027;-66
2021/08/25 11:47:49;;;;;;;9.25;5.40;;;;;;;;;;5112739;28;20027;-65
2021/08/25 11:50:16;;;;;;;10.13;5.22;;;;;;;;;;5113211;27;20521;-66
2021/08/25 11:52:42;;;;;;;8.98;5.05;;;;;;;;;;5091535;28;20480;-66
2021/08/25 11:55:08;;;;;;;8.82;4.93;;;;;;;;;;5099225;28;20074;-66
2021/08/25 11:57:47;;;;;;;12.93;4.60;;;;;;;;;;5092733;28;20085;-66
2021/08/25 12:00:14;;;;;;;9.85;5.40;;;;;;;;;;5092550;28;20051;-66
2021/08/25 12:02:50;;;;;;;9.85;5.05;;;;;;;;;;5089843;28;20073;-66
2021/08/25 12:05:20;;;;;;;10.63;4.35;;;;;;;;;;5092275;28;20059;-67
2021/08/25 12:08:02;;;;;;;10.13;4.40;;;;;;;;;;5092552;28;20249;-65
2021/08/25 12:10:29;;;;;;;9.25;4.70;;;;;;;;;;5092425;28;20024;-67
2021/08/25 12:12:58;;;;;;;9.30;3.95;;;;;;;;;;5089745;28;20161;-65
2021/08/25 12:15:44;;;;;;;10.18;3.63;;;;;;;;;;5090124;28;20035;-66
2021/08/25 12:18:10;;;;;;;8.27;3.92;;;;;;;;;;5091116;28;20027;-67
2021/08/25 12:20:36;;;;;;;8.38;4.05;;;;;;;;;;5092302;28;20050;-66
2021/08/25 12:23:07;;;;;;;10.13;4.22;;;;;;;;;;5089406;28;20063;-66
2021/08/25 12:25:52;;;;;;;11.00;4.30;;;;;;;;;;5091817;28;20031;-66
2021/08/25 12:28:32;;;;;;;7.38;3.60;;;;;;;;;;5092151;28;20073;-66
2021/08/25 12:31:15;;;;;;;13.35;3.97;;;;;;;;;;5092421;28;20040;-66
2021/08/25 12:33:42;;;;;;;7.65;3.58;;;;;;;;;;5092424;28;20016;-65
2021/08/25 12:36:20;;;;;;;10.05;3.70;;;;;;;;;;5112282;28;20092;-67
2021/08/25 12:38:46;;;;;;;6.55;3.40;;;;;;;;;;5094279;28;20053;-67
2021/08/25 12:41:12;;;;;;;7.47;3.45;;;;;;;;;;5112238;28;20481;-67
2021/08/25 12:43:38;;;;;;;9.88;3.10;;;;;;;;;;5109436;28;20126;-67
2021/08/25 12:46:04;;;;;;;13.45;3.55;;;;;;;;;;5111863;28;20020;-67
2021/08/25 12:48:30;;;;;;;8.07;3.45;;;;;;;;;;5093676;28;20157;-66
2021/08/25 12:50:56;;;;;;;6.00;3.20;;;;;;;;;;5093740;28;20378;-67
2021/08/25 12:53:22;;;;;;;6.65;3.38;;;;;;;;;;5109243;28;20020;-67
2021/08/25 12:55:48;;;;;;;6.72;3.13;;;;;;;;;;5092489;28;20509;-66
2021/08/25 12:58:14;;;;;;;9.63;3.42;;;;;;;;;;5090988;28;20039;-65
2021/08/25 13:00:40;;;;;;;8.43;3.75;;;;;;;;;;5091697;28;20024;-65
2021/08/25 13:03:07;;;;;;;8.63;3.45;;;;;;;;;;5088593;28;20494;-66
2021/08/25 13:05:33;;;;;;;9.00;3.45;;;;;;;;;;5091350;28;20073;-66
2021/08/25 13:07:59;;;;;;;10.20;3.10;;;;;;;;;;5091556;28;20056;-66
2021/08/25 13:10:25;;;;;;;7.90;3.35;;;;;;;;;;5091337;28;20032;-66
2021/08/25 13:12:51;;;;;;;10.40;3.30;;;;;;;;;;5087346;28;20022;-67
2021/08/25 13:15:17;;;;;;;5.85;2.60;;;;;;;;;;5089737;28;20020;-66
2021/08/25 13:17:43;;;;;;;7.75;3.10;;;;;;;;;;5091733;28;20031;-66
2021/08/25 13:20:09;;;;;;;8.63;3.00;;;;;;;;;;5091300;28;20024;-66
2021/08/25 13:22:35;;;;;;;7.65;2.55;;;;;;;;;;5088441;28;20111;-66
2021/08/25 13:25:01;;;;;;;5.95;2.67;;;;;;;;;;5089543;28;20111;-66
2021/08/25 13:27:27;;;;;;;6.57;2.30;;;;;;;;;;5090966;28;20028;-66
2021/08/25 13:29:54;;;;;;;8.45;2.45;;;;;;;;;;5091236;28;20099;-65
2021/08/25 13:32:20;;;;;;;7.43;2.50;;;;;;;;;;5089050;28;20024;-66
2021/08/25 13:34:46;;;;;;;7.40;2.00;;;;;;;;;;5102592;28;20028;-66
2021/08/25 13:37:12;;;;;;;5.13;2.25;;;;;;;;;;5111381;28;20027;-66
2021/08/25 13:39:39;;;;;;;6.35;2.38;;;;;;;;;;5093250;28;20529;-66
2021/08/25 13:42:05;;;;;;;7.43;2.25;;;;;;;;;;5110831;28;20157;-66
2021/08/25 13:44:31;;;;;;;4.60;2.60;;;;;;;;;;5108804;28;20016;-66
2021/08/25 13:46:57;;;;;;;4.75;2.20;;;;;;;;;;5111302;28;20028;-66
2021/08/25 13:49:24;;;;;;;4.50;2.05;;;;;;;;;;5111104;28;20048;-66
2021/08/25 13:51:50;;;;;;;7.40;2.10;;;;;;;;;;5092976;28;20504;-67
2021/08/25 13:54:16;;;;;;;4.75;2.22;;;;;;;;;;5086515;28;20027;-66
2021/08/25 13:56:42;;;;;;;6.20;1.90;;;;;;;;;;5090240;28;20525;-66
2021/08/25 13:59:08;;;;;;;6.38;1.60;;;;;;;;;;5091285;28;20077;-66
2021/08/25 14:01:35;;;;;;;5.82;2.03;;;;;;;;;;5090731;28;20499;-66
2021/08/25 14:04:01;;;;;;;3.80;1.50;;;;;;;;;;5087789;28;20497;-66
2021/08/25 14:06:29;;;;;;;4.03;1.92;;;;;;;;;;5090326;28;20035;-66
2021/08/25 14:08:55;;;;;;;5.45;1.75;;;;;;;;;;5090780;28;20532;-67
2021/08/25 14:11:21;;;;;;;4.05;1.40;;;;;;;;;;5094772;28;20277;-66
2021/08/25 14:13:47;;;;;;;7.47;1.58;;;;;;;;;;5091877;28;20023;-67
2021/08/25 14:16:13;;;;;;;5.47;1.40;;;;;;;;;;5094596;28;20024;-66
2021/08/25 14:18:39;;;;;;;5.18;1.48;;;;;;;;;;5094909;28;20024;-66
2021/08/25 14:21:06;;;;;;;6.53;1.98;;;;;;;;;;5094783;28;20031;-66
2021/08/25 14:23:32;;;;;;;4.75;1.33;;;;;;;;;;5073711;28;20491;-66
2021/08/25 14:25:58;;;;;;;4.00;1.50;;;;;;;;;;5094278;28;20085;-67